PWSweather.com
Personal Weather Stations
Station Observations
KMNMADEL2
Andys Live Weather Stations, Madelia, MN 56062

Andys Live Weather StationsMadelia, MN 56062

Lat: 44.04636, Lon: -94.4163437

Elevation: 1006

Station Type: Wireless Davis Instruments Vantage Pro2 Plus

http://www.madeliasliveweather.com/

Latest ConditionsUpdated 4:15:02 PM CST Monday, Nov 24, 2014
Currently Today's Max Today's Min Today's Average
Temperature 15.2°F-9.3°C 28.5°F-1.9°C 15.1°F-9.4°C 20.2°F-6.6°C
Dew Point 11.8°F-11.2°C 24.8°F-4.0°C 11.7°F-11.3°C 16.3°F-8.7°C
Winds 9.0 mph NW14.5 kmh NW 21.0 mph WNW33.8 kmh WNW - 12.6 mph 20.3 kmh
Wind Gusts 21.0 mph33.8 kmh 33.0 mph53.1 kmh - -
Humidity 86% 89% 80% 85%
Pressure 29.78 in1008.5 mb 29.78 in1008.5 mb 29.39 in995.3 mb -
Hour Temp Dew Point Humidity Winds Wind Gusts Pressure Precip Precip Rate Daily Precip Total
04:15 PM 15.2°F-9.3°C 11.8°F-11.2°C 86% 9.0 mph NW14.5 kmh NW 21.0 mph33.8 kmh 29.78 in1008.5 mb 0.00 in0.0 mm 0.00 in/hr0.0 mm/hr 0.00 in0.0 mm
04:10 PM 15.1°F-9.4°C 11.7°F-11.3°C 86% 10.0 mph NW16.1 kmh NW 21.0 mph33.8 kmh 29.77 in1008.1 mb 0.00 in0.0 mm 0.00 in/hr0.0 mm/hr 0.00 in0.0 mm
04:05 PM 15.2°F-9.3°C 12.0°F-11.1°C 87% 8.0 mph W12.9 kmh W 21.0 mph33.8 kmh 29.77 in1008.1 mb 0.00 in0.0 mm 0.00 in/hr0.0 mm/hr 0.00 in0.0 mm
04:00 PM 15.1°F-9.4°C 11.9°F-11.2°C 87% 10.0 mph NW16.1 kmh NW 12.0 mph19.3 kmh 29.77 in1008.1 mb 0.00 in0.0 mm 0.00 in/hr0.0 mm/hr 0.00 in0.0 mm
03:55 PM 15.1°F-9.4°C 11.9°F-11.2°C 87% 10.0 mph WSW16.1 kmh WSW 24.0 mph38.6 kmh 29.76 in1007.8 mb 0.00 in0.0 mm 0.00 in/hr0.0 mm/hr 0.00 in0.0 mm
03:50 PM 15.1°F-9.4°C 11.9°F-11.2°C 87% 14.0 mph W22.5 kmh W 24.0 mph38.6 kmh 29.76 in1007.8 mb 0.00 in0.0 mm 0.00 in/hr0.0 mm/hr 0.00 in0.0 mm
03:45 PM 15.1°F-9.4°C 11.9°F-11.2°C 87% 11.0 mph WNW17.7 kmh WNW 24.0 mph38.6 kmh 29.76 in1007.8 mb 0.00 in0.0 mm 0.00 in/hr0.0 mm/hr 0.00 in0.0 mm
03:40 PM 15.1°F-9.4°C 11.9°F-11.2°C 87% 18.0 mph WNW29.0 kmh WNW 21.0 mph33.8 kmh 29.75 in1007.5 mb 0.00 in0.0 mm 0.00 in/hr0.0 mm/hr 0.00 in0.0 mm
03:35 PM 15.3°F-9.3°C 12.1°F-11.1°C 87% 10.0 mph W16.1 kmh W 20.0 mph32.2 kmh 29.75 in1007.5 mb 0.00 in0.0 mm 0.00 in/hr0.0 mm/hr 0.00 in0.0 mm
03:30 PM 15.5°F-9.2°C 12.3°F-10.9°C 87% 8.0 mph NW12.9 kmh NW 14.0 mph22.5 kmh 29.75 in1007.5 mb 0.00 in0.0 mm 0.00 in/hr0.0 mm/hr 0.00 in0.0 mm
03:25 PM 15.4°F-9.2°C 12.2°F-11.0°C 87% 10.0 mph WNW16.1 kmh WNW 25.0 mph40.2 kmh 29.74 in1007.1 mb 0.00 in0.0 mm 0.00 in/hr0.0 mm/hr 0.00 in0.0 mm
03:20 PM 15.5°F-9.2°C 12.3°F-10.9°C 87% 13.0 mph NW20.9 kmh NW 25.0 mph40.2 kmh 29.73 in1006.8 mb 0.00 in0.0 mm 0.00 in/hr0.0 mm/hr 0.00 in0.0 mm
03:15 PM 15.6°F-9.1°C 12.4°F-10.9°C 87% 16.0 mph NW25.7 kmh NW 24.0 mph38.6 kmh 29.73 in1006.8 mb 0.00 in0.0 mm 0.00 in/hr0.0 mm/hr 0.00 in0.0 mm
03:10 PM 15.6°F-9.1°C 12.4°F-10.9°C 87% 11.0 mph W17.7 kmh W 20.0 mph32.2 kmh 29.73 in1006.8 mb 0.00 in0.0 mm 0.00 in/hr0.0 mm/hr 0.00 in0.0 mm
03:05 PM 15.7°F-9.1°C 12.5°F-10.8°C 87% 9.0 mph NW14.5 kmh NW 20.0 mph32.2 kmh 29.72 in1006.4 mb 0.00 in0.0 mm 0.00 in/hr0.0 mm/hr 0.00 in0.0 mm
03:00 PM 15.8°F-9.0°C 12.6°F-10.8°C 87% 3.0 mph WNW4.8 kmh WNW 12.0 mph19.3 kmh 29.72 in1006.4 mb 0.00 in0.0 mm 0.00 in/hr0.0 mm/hr 0.00 in0.0 mm
02:55 PM 15.8°F-9.0°C 12.4°F-10.9°C 86% 10.0 mph WNW16.1 kmh WNW 24.0 mph38.6 kmh 29.71 in1006.1 mb 0.00 in0.0 mm 0.00 in/hr0.0 mm/hr 0.00 in0.0 mm
02:50 PM 16.0°F-8.9°C 12.6°F-10.8°C 86% 10.0 mph WNW16.1 kmh WNW 24.0 mph38.6 kmh 29.71 in1006.1 mb 0.00 in0.0 mm 0.00 in/hr0.0 mm/hr 0.00 in0.0 mm
02:45 PM 16.0°F-8.9°C 12.6°F-10.8°C 86% 9.0 mph W14.5 kmh W 24.0 mph38.6 kmh 29.70 in1005.8 mb 0.00 in0.0 mm 0.00 in/hr0.0 mm/hr 0.00 in0.0 mm
02:40 PM 16.2°F-8.8°C 12.8°F-10.7°C 86% 12.0 mph WNW19.3 kmh WNW 24.0 mph38.6 kmh 29.70 in1005.8 mb 0.00 in0.0 mm 0.00 in/hr0.0 mm/hr 0.00 in0.0 mm
02:35 PM 16.3°F-8.7°C 12.6°F-10.8°C 85% 11.0 mph NW17.7 kmh NW 24.0 mph38.6 kmh 29.70 in1005.8 mb 0.00 in0.0 mm 0.00 in/hr0.0 mm/hr 0.00 in0.0 mm
02:30 PM 16.5°F-8.6°C 12.8°F-10.7°C 85% 10.0 mph WNW16.1 kmh WNW 16.0 mph25.7 kmh 29.69 in1005.4 mb 0.00 in0.0 mm 0.00 in/hr0.0 mm/hr 0.00 in0.0 mm
02:25 PM 16.5°F-8.6°C 12.5°F-10.8°C 84% 15.0 mph NW24.1 kmh NW 28.0 mph45.1 kmh 29.69 in1005.4 mb 0.00 in0.0 mm 0.00 in/hr0.0 mm/hr 0.00 in0.0 mm
02:20 PM 16.7°F-8.5°C 12.5°F-10.8°C 83% 14.0 mph NW22.5 kmh NW 28.0 mph45.1 kmh 29.69 in1005.4 mb 0.00 in0.0 mm 0.00 in/hr0.0 mm/hr 0.00 in0.0 mm
02:15 PM 17.1°F-8.3°C 12.6°F-10.8°C 82% 14.0 mph NW22.5 kmh NW 28.0 mph45.1 kmh 29.68 in1005.1 mb 0.00 in0.0 mm 0.00 in/hr0.0 mm/hr 0.00 in0.0 mm
02:10 PM 17.6°F-8.0°C 13.1°F-10.5°C 82% 17.0 mph W27.4 kmh W 26.0 mph41.8 kmh 29.67 in1004.7 mb 0.00 in0.0 mm 0.00 in/hr0.0 mm/hr 0.00 in0.0 mm
02:05 PM 17.9°F-7.8°C 13.4°F-10.3°C 82% 14.0 mph WNW22.5 kmh WNW 21.0 mph33.8 kmh 29.67 in1004.7 mb 0.00 in0.0 mm 0.00 in/hr0.0 mm/hr 0.00 in0.0 mm
02:00 PM 18.1°F-7.7°C 13.5°F-10.3°C 82% 13.0 mph NW20.9 kmh NW 20.0 mph32.2 kmh 29.67 in1004.7 mb 0.00 in0.0 mm 0.00 in/hr0.0 mm/hr 0.00 in0.0 mm
01:55 PM 18.2°F-7.7°C 13.6°F-10.2°C 82% 16.0 mph NW25.7 kmh NW 28.0 mph45.1 kmh 29.67 in1004.7 mb 0.00 in0.0 mm 0.00 in/hr0.0 mm/hr 0.00 in0.0 mm
01:50 PM 18.1°F-7.7°C 13.3°F-10.4°C 81% 15.0 mph NW24.1 kmh NW 28.0 mph45.1 kmh 29.66 in1004.4 mb 0.00 in0.0 mm 0.00 in/hr0.0 mm/hr 0.00 in0.0 mm
01:45 PM 18.2°F-7.7°C 13.1°F-10.5°C 80% 13.0 mph W20.9 kmh W 28.0 mph45.1 kmh 29.66 in1004.4 mb 0.00 in0.0 mm 0.00 in/hr0.0 mm/hr 0.00 in0.0 mm
01:40 PM 18.2°F-7.7°C 13.1°F-10.5°C 80% 11.0 mph NW17.7 kmh NW 28.0 mph45.1 kmh 29.65 in1004.1 mb 0.00 in0.0 mm 0.00 in/hr0.0 mm/hr 0.00 in0.0 mm
01:35 PM 18.2°F-7.7°C 13.1°F-10.5°C 80% 14.0 mph NW22.5 kmh NW 26.0 mph41.8 kmh 29.65 in1004.1 mb 0.00 in0.0 mm 0.00 in/hr0.0 mm/hr 0.00 in0.0 mm
01:30 PM 18.4°F-7.6°C 13.8°F-10.1°C 82% 9.0 mph WNW14.5 kmh WNW 25.0 mph40.2 kmh 29.65 in1004.1 mb 0.00 in0.0 mm 0.00 in/hr0.0 mm/hr 0.00 in0.0 mm
01:25 PM 18.3°F-7.6°C 13.7°F-10.2°C 82% 8.0 mph W12.9 kmh W 26.0 mph41.8 kmh 29.65 in1004.1 mb 0.00 in0.0 mm 0.00 in/hr0.0 mm/hr 0.00 in0.0 mm
01:20 PM 18.3°F-7.6°C 13.7°F-10.2°C 82% 18.0 mph WNW29.0 kmh WNW 26.0 mph41.8 kmh 29.65 in1004.1 mb 0.00 in0.0 mm 0.00 in/hr0.0 mm/hr 0.00 in0.0 mm
01:15 PM 18.5°F-7.5°C 13.9°F-10.1°C 82% 13.0 mph WNW20.9 kmh WNW 24.0 mph38.6 kmh 29.65 in1004.1 mb 0.00 in0.0 mm 0.00 in/hr0.0 mm/hr 0.00 in0.0 mm
01:10 PM 18.4°F-7.6°C 14.1°F-9.9°C 83% 12.0 mph WNW19.3 kmh WNW 24.0 mph38.6 kmh 29.64 in1003.7 mb 0.00 in0.0 mm 0.00 in/hr0.0 mm/hr 0.00 in0.0 mm
01:05 PM 18.4°F-7.6°C 14.1°F-9.9°C 83% 7.0 mph NW11.3 kmh NW 24.0 mph38.6 kmh 29.64 in1003.7 mb 0.00 in0.0 mm 0.00 in/hr0.0 mm/hr 0.00 in0.0 mm
01:00 PM 18.4°F-7.6°C 14.1°F-9.9°C 83% 20.0 mph WNW32.2 kmh WNW 24.0 mph38.6 kmh 29.64 in1003.7 mb 0.00 in0.0 mm 0.00 in/hr0.0 mm/hr 0.00 in0.0 mm
12:55 PM 18.3°F-7.6°C 14.3°F-9.8°C 84% 16.0 mph WNW25.7 kmh WNW 25.0 mph40.2 kmh 29.63 in1003.4 mb 0.00 in0.0 mm 0.00 in/hr0.0 mm/hr 0.00 in0.0 mm
12:50 PM 18.2°F-7.7°C 14.2°F-9.9°C 84% 13.0 mph NW20.9 kmh NW 25.0 mph40.2 kmh 29.63 in1003.4 mb 0.00 in0.0 mm 0.00 in/hr0.0 mm/hr 0.00 in0.0 mm
12:45 PM 18.0°F-7.8°C 14.3°F-9.8°C 85% 17.0 mph WNW27.4 kmh WNW 25.0 mph40.2 kmh 29.63 in1003.4 mb 0.00 in0.0 mm 0.00 in/hr0.0 mm/hr 0.00 in0.0 mm
12:40 PM 17.7°F-7.9°C 13.7°F-10.2°C 84% 14.0 mph NW22.5 kmh NW 23.0 mph37.0 kmh 29.63 in1003.4 mb 0.00 in0.0 mm 0.00 in/hr0.0 mm/hr 0.00 in0.0 mm
12:35 PM 17.7°F-7.9°C 13.7°F-10.2°C 84% 18.0 mph NW29.0 kmh NW 22.0 mph35.4 kmh 29.63 in1003.4 mb 0.00 in0.0 mm 0.00 in/hr0.0 mm/hr 0.00 in0.0 mm
12:30 PM 17.8°F-7.9°C 13.8°F-10.1°C 84% 10.0 mph NW16.1 kmh NW 20.0 mph32.2 kmh 29.62 in1003.0 mb 0.00 in0.0 mm 0.00 in/hr0.0 mm/hr 0.00 in0.0 mm
12:25 PM 17.8°F-7.9°C 14.1°F-9.9°C 85% 12.0 mph WNW19.3 kmh WNW 24.0 mph38.6 kmh 29.62 in1003.0 mb 0.00 in0.0 mm 0.00 in/hr0.0 mm/hr 0.00 in0.0 mm
12:20 PM 17.8°F-7.9°C 14.3°F-9.8°C 86% 14.0 mph WNW22.5 kmh WNW 24.0 mph38.6 kmh 29.62 in1003.0 mb 0.00 in0.0 mm 0.00 in/hr0.0 mm/hr 0.00 in0.0 mm
12:15 PM 17.7°F-7.9°C 14.0°F-10.0°C 85% 13.0 mph N20.9 kmh N 24.0 mph38.6 kmh 29.62 in1003.0 mb 0.00 in0.0 mm 0.00 in/hr0.0 mm/hr 0.00 in0.0 mm
12:10 PM 17.6°F-8.0°C 13.9°F-10.1°C 85% 12.0 mph NW19.3 kmh NW 24.0 mph38.6 kmh 29.61 in1002.7 mb 0.00 in0.0 mm 0.00 in/hr0.0 mm/hr 0.00 in0.0 mm
12:05 PM 17.6°F-8.0°C 14.1°F-9.9°C 86% 8.0 mph W12.9 kmh W 24.0 mph38.6 kmh 29.61 in1002.7 mb 0.00 in0.0 mm 0.00 in/hr0.0 mm/hr 0.00 in0.0 mm
12:00 PM 17.4°F-8.1°C 13.9°F-10.1°C 86% 14.0 mph WNW22.5 kmh WNW 23.0 mph37.0 kmh 29.61 in1002.7 mb 0.00 in0.0 mm 0.00 in/hr0.0 mm/hr 0.00 in0.0 mm
11:55 AM 17.4°F-8.1°C 14.2°F-9.9°C 87% 14.0 mph WNW22.5 kmh WNW 24.0 mph38.6 kmh 29.61 in1002.7 mb 0.00 in0.0 mm 0.00 in/hr0.0 mm/hr 0.00 in0.0 mm
11:50 AM 17.4°F-8.1°C 14.2°F-9.9°C 87% 11.0 mph NW17.7 kmh NW 24.0 mph38.6 kmh 29.61 in1002.7 mb 0.00 in0.0 mm 0.00 in/hr0.0 mm/hr 0.00 in0.0 mm
11:45 AM 17.5°F-8.1°C 14.0°F-10.0°C 86% 9.0 mph WNW14.5 kmh WNW 24.0 mph38.6 kmh 29.61 in1002.7 mb 0.00 in0.0 mm 0.00 in/hr0.0 mm/hr 0.00 in0.0 mm
11:40 AM 17.6°F-8.0°C 14.4°F-9.8°C 87% 17.0 mph NW27.4 kmh NW 21.0 mph33.8 kmh 29.60 in1002.4 mb 0.00 in0.0 mm 0.00 in/hr0.0 mm/hr 0.00 in0.0 mm
11:35 AM 17.8°F-7.9°C 14.9°F-9.5°C 88% 14.0 mph W22.5 kmh W 21.0 mph33.8 kmh 29.60 in1002.4 mb 0.00 in0.0 mm 0.00 in/hr0.0 mm/hr 0.00 in0.0 mm
11:30 AM 17.6°F-8.0°C 14.7°F-9.6°C 88% 13.0 mph W20.9 kmh W 18.0 mph29.0 kmh 29.60 in1002.4 mb 0.00 in0.0 mm 0.00 in/hr0.0 mm/hr 0.00 in0.0 mm
11:25 AM 17.2°F-8.2°C 14.3°F-9.8°C 88% 9.0 mph NW14.5 kmh NW 23.0 mph37.0 kmh 29.60 in1002.4 mb 0.00 in0.0 mm 0.00 in/hr0.0 mm/hr 0.00 in0.0 mm
11:20 AM 17.0°F-8.3°C 13.8°F-10.1°C 87% 11.0 mph WNW17.7 kmh WNW 23.0 mph37.0 kmh 29.59 in1002.0 mb 0.00 in0.0 mm 0.00 in/hr0.0 mm/hr 0.00 in0.0 mm
11:15 AM 17.0°F-8.3°C 13.8°F-10.1°C 87% 11.0 mph WNW17.7 kmh WNW 20.0 mph32.2 kmh 29.60 in1002.4 mb 0.00 in0.0 mm 0.00 in/hr0.0 mm/hr 0.00 in0.0 mm
11:10 AM 17.3°F-8.2°C 14.1°F-9.9°C 87% 20.0 mph WNW32.2 kmh WNW 20.0 mph32.2 kmh 29.59 in1002.0 mb 0.00 in0.0 mm 0.00 in/hr0.0 mm/hr 0.00 in0.0 mm
11:00 AM 17.6°F-8.0°C 13.9°F-10.1°C 85% 12.0 mph NW19.3 kmh NW 15.0 mph24.1 kmh 29.59 in1002.0 mb 0.00 in0.0 mm 0.00 in/hr0.0 mm/hr 0.00 in0.0 mm
10:55 AM 17.5°F-8.1°C 13.8°F-10.1°C 85% 14.0 mph WNW22.5 kmh WNW 28.0 mph45.1 kmh 29.58 in1001.7 mb 0.00 in0.0 mm 0.00 in/hr0.0 mm/hr 0.00 in0.0 mm
10:50 AM 17.5°F-8.1°C 13.5°F-10.3°C 84% 11.0 mph W17.7 kmh W 28.0 mph45.1 kmh 29.59 in1002.0 mb 0.00 in0.0 mm 0.00 in/hr0.0 mm/hr 0.00 in0.0 mm
10:45 AM 17.5°F-8.1°C 13.2°F-10.4°C 83% 7.0 mph WNW11.3 kmh WNW 28.0 mph45.1 kmh 29.58 in1001.7 mb 0.00 in0.0 mm 0.00 in/hr0.0 mm/hr 0.00 in0.0 mm
10:40 AM 17.5°F-8.1°C 13.0°F-10.6°C 82% 6.0 mph WNW9.7 kmh WNW 28.0 mph45.1 kmh 29.58 in1001.7 mb 0.00 in0.0 mm 0.00 in/hr0.0 mm/hr 0.00 in0.0 mm
10:35 AM 17.5°F-8.1°C 13.0°F-10.6°C 82% 17.0 mph NW27.4 kmh NW 28.0 mph45.1 kmh 29.58 in1001.7 mb 0.00 in0.0 mm 0.00 in/hr0.0 mm/hr 0.00 in0.0 mm
10:30 AM 17.6°F-8.0°C 13.3°F-10.4°C 83% 17.0 mph NW27.4 kmh NW 22.0 mph35.4 kmh 29.58 in1001.7 mb 0.00 in0.0 mm 0.00 in/hr0.0 mm/hr 0.00 in0.0 mm
10:25 AM 17.6°F-8.0°C 13.3°F-10.4°C 83% 13.0 mph W20.9 kmh W 32.0 mph51.5 kmh 29.58 in1001.7 mb 0.00 in0.0 mm 0.00 in/hr0.0 mm/hr 0.00 in0.0 mm
10:20 AM 17.6°F-8.0°C 13.1°F-10.5°C 82% 10.0 mph WNW16.1 kmh WNW 32.0 mph51.5 kmh 29.58 in1001.7 mb 0.00 in0.0 mm 0.00 in/hr0.0 mm/hr 0.00 in0.0 mm
10:15 AM 17.7°F-7.9°C 13.2°F-10.4°C 82% 10.0 mph NW16.1 kmh NW 32.0 mph51.5 kmh 29.57 in1001.4 mb 0.00 in0.0 mm 0.00 in/hr0.0 mm/hr 0.00 in0.0 mm
10:10 AM 17.6°F-8.0°C 13.1°F-10.5°C 82% 10.0 mph NW16.1 kmh NW 32.0 mph51.5 kmh 29.57 in1001.4 mb 0.00 in0.0 mm 0.00 in/hr0.0 mm/hr 0.00 in0.0 mm
10:05 AM 17.6°F-8.0°C 13.1°F-10.5°C 82% 16.0 mph WNW25.7 kmh WNW 23.0 mph37.0 kmh 29.57 in1001.4 mb 0.00 in0.0 mm 0.00 in/hr0.0 mm/hr 0.00 in0.0 mm
10:00 AM 17.7°F-7.9°C 13.2°F-10.4°C 82% 15.0 mph NW24.1 kmh NW 21.0 mph33.8 kmh 29.57 in1001.4 mb 0.00 in0.0 mm 0.00 in/hr0.0 mm/hr 0.00 in0.0 mm
09:55 AM 17.8°F-7.9°C 13.3°F-10.4°C 82% 18.0 mph NW29.0 kmh NW 25.0 mph40.2 kmh 29.57 in1001.4 mb 0.00 in0.0 mm 0.00 in/hr0.0 mm/hr 0.00 in0.0 mm
09:50 AM 17.7°F-7.9°C 13.2°F-10.4°C 82% 13.0 mph NW20.9 kmh NW 25.0 mph40.2 kmh 29.56 in1001.0 mb 0.00 in0.0 mm 0.00 in/hr0.0 mm/hr 0.00 in0.0 mm
09:45 AM 17.8°F-7.9°C 13.3°F-10.4°C 82% 11.0 mph W17.7 kmh W 22.0 mph35.4 kmh 29.56 in1001.0 mb 0.00 in0.0 mm 0.00 in/hr0.0 mm/hr 0.00 in0.0 mm
09:40 AM 17.8°F-7.9°C 13.5°F-10.3°C 83% 11.0 mph NW17.7 kmh NW 21.0 mph33.8 kmh 29.56 in1001.0 mb 0.00 in0.0 mm 0.00 in/hr0.0 mm/hr 0.00 in0.0 mm
09:35 AM 17.8°F-7.9°C 13.5°F-10.3°C 83% 12.0 mph WNW19.3 kmh WNW 21.0 mph33.8 kmh 29.56 in1001.0 mb 0.00 in0.0 mm 0.00 in/hr0.0 mm/hr 0.00 in0.0 mm
09:30 AM 17.7°F-7.9°C 13.4°F-10.3°C 83% 8.0 mph WNW12.9 kmh WNW 12.0 mph19.3 kmh 29.56 in1001.0 mb 0.00 in0.0 mm 0.00 in/hr0.0 mm/hr 0.00 in0.0 mm
09:25 AM 17.7°F-7.9°C 13.4°F-10.3°C 83% 13.0 mph WNW20.9 kmh WNW 29.0 mph46.7 kmh 29.55 in1000.7 mb 0.00 in0.0 mm 0.00 in/hr0.0 mm/hr 0.00 in0.0 mm
09:20 AM 17.8°F-7.9°C 13.8°F-10.1°C 84% 15.0 mph W24.1 kmh W 29.0 mph46.7 kmh 29.55 in1000.7 mb 0.00 in0.0 mm 0.00 in/hr0.0 mm/hr 0.00 in0.0 mm
09:15 AM 17.9°F-7.8°C 13.9°F-10.1°C 84% 18.0 mph WNW29.0 kmh WNW 26.0 mph41.8 kmh 29.55 in1000.7 mb 0.00 in0.0 mm 0.00 in/hr0.0 mm/hr 0.00 in0.0 mm
09:10 AM 18.0°F-7.8°C 13.7°F-10.2°C 83% 15.0 mph NW24.1 kmh NW 26.0 mph41.8 kmh 29.54 in1000.3 mb 0.00 in0.0 mm 0.00 in/hr0.0 mm/hr 0.00 in0.0 mm
09:05 AM 18.0°F-7.8°C 13.7°F-10.2°C 83% 19.0 mph WNW30.6 kmh WNW 26.0 mph41.8 kmh 29.54 in1000.3 mb 0.00 in0.0 mm 0.00 in/hr0.0 mm/hr 0.00 in0.0 mm
09:00 AM 18.0°F-7.8°C 13.7°F-10.2°C 83% 10.0 mph W16.1 kmh W 26.0 mph41.8 kmh 29.54 in1000.3 mb 0.00 in0.0 mm 0.00 in/hr0.0 mm/hr 0.00 in0.0 mm
08:55 AM 18.0°F-7.8°C 13.7°F-10.2°C 83% 12.0 mph WNW19.3 kmh WNW 28.0 mph45.1 kmh 29.54 in1000.3 mb 0.00 in0.0 mm 0.00 in/hr0.0 mm/hr 0.00 in0.0 mm
08:50 AM 18.2°F-7.7°C 13.9°F-10.1°C 83% 14.0 mph WNW22.5 kmh WNW 28.0 mph45.1 kmh 29.54 in1000.3 mb 0.00 in0.0 mm 0.00 in/hr0.0 mm/hr 0.00 in0.0 mm
08:45 AM 18.2°F-7.7°C 13.6°F-10.2°C 82% 12.0 mph NW19.3 kmh NW 28.0 mph45.1 kmh 29.53 in1000.0 mb 0.00 in0.0 mm 0.00 in/hr0.0 mm/hr 0.00 in0.0 mm
08:40 AM 18.4°F-7.6°C 13.8°F-10.1°C 82% 17.0 mph NW27.4 kmh NW 21.0 mph33.8 kmh 29.53 in1000.0 mb 0.00 in0.0 mm 0.00 in/hr0.0 mm/hr 0.00 in0.0 mm
08:35 AM 18.5°F-7.5°C 13.9°F-10.1°C 82% 14.0 mph WNW22.5 kmh WNW 21.0 mph33.8 kmh 29.53 in1000.0 mb 0.00 in0.0 mm 0.00 in/hr0.0 mm/hr 0.00 in0.0 mm
08:30 AM 18.6°F-7.4°C 14.0°F-10.0°C 82% 10.0 mph NNW16.1 kmh NNW 20.0 mph32.2 kmh 29.53 in1000.0 mb 0.00 in0.0 mm 0.00 in/hr0.0 mm/hr 0.00 in0.0 mm
08:25 AM 18.6°F-7.4°C 14.0°F-10.0°C 82% 8.0 mph WNW12.9 kmh WNW 24.0 mph38.6 kmh 29.53 in1000.0 mb 0.00 in0.0 mm 0.00 in/hr0.0 mm/hr 0.00 in0.0 mm
08:20 AM 18.7°F-7.4°C 14.1°F-9.9°C 82% 13.0 mph W20.9 kmh W 24.0 mph38.6 kmh 29.53 in1000.0 mb 0.00 in0.0 mm 0.00 in/hr0.0 mm/hr 0.00 in0.0 mm
08:15 AM 18.7°F-7.4°C 14.1°F-9.9°C 82% 10.0 mph NW16.1 kmh NW 24.0 mph38.6 kmh 29.52 in999.7 mb 0.00 in0.0 mm 0.00 in/hr0.0 mm/hr 0.00 in0.0 mm
08:10 AM 18.8°F-7.3°C 14.2°F-9.9°C 82% 15.0 mph NW24.1 kmh NW 23.0 mph37.0 kmh 29.52 in999.7 mb 0.00 in0.0 mm 0.00 in/hr0.0 mm/hr 0.00 in0.0 mm
08:05 AM 18.8°F-7.3°C 14.2°F-9.9°C 82% 15.0 mph WNW24.1 kmh WNW 23.0 mph37.0 kmh 29.51 in999.3 mb 0.00 in0.0 mm 0.00 in/hr0.0 mm/hr 0.00 in0.0 mm
08:00 AM 18.7°F-7.4°C 13.9°F-10.1°C 81% 14.0 mph NW22.5 kmh NW 23.0 mph37.0 kmh 29.51 in999.3 mb 0.00 in0.0 mm 0.00 in/hr0.0 mm/hr 0.00 in0.0 mm
07:55 AM 18.8°F-7.3°C 14.2°F-9.9°C 82% 14.0 mph NW22.5 kmh NW 27.0 mph43.5 kmh 29.50 in999.0 mb 0.00 in0.0 mm 0.00 in/hr0.0 mm/hr 0.00 in0.0 mm
07:50 AM 18.9°F-7.3°C 14.3°F-9.8°C 82% 13.0 mph NW20.9 kmh NW 27.0 mph43.5 kmh 29.50 in999.0 mb 0.00 in0.0 mm 0.00 in/hr0.0 mm/hr 0.00 in0.0 mm
07:45 AM 19.0°F-7.2°C 14.4°F-9.8°C 82% 10.0 mph W16.1 kmh W 24.0 mph38.6 kmh 29.50 in999.0 mb 0.00 in0.0 mm 0.00 in/hr0.0 mm/hr 0.00 in0.0 mm
07:40 AM 19.0°F-7.2°C 14.4°F-9.8°C 82% 12.0 mph WNW19.3 kmh WNW 23.0 mph37.0 kmh 29.50 in999.0 mb 0.00 in0.0 mm 0.00 in/hr0.0 mm/hr 0.00 in0.0 mm
07:35 AM 19.0°F-7.2°C 14.4°F-9.8°C 82% 11.0 mph WNW17.7 kmh WNW 23.0 mph37.0 kmh 29.50 in999.0 mb 0.00 in0.0 mm 0.00 in/hr0.0 mm/hr 0.00 in0.0 mm
07:30 AM 19.1°F-7.2°C 14.5°F-9.7°C 82% 13.0 mph NNW20.9 kmh NNW 21.0 mph33.8 kmh 29.50 in999.0 mb 0.00 in0.0 mm 0.00 in/hr0.0 mm/hr 0.00 in0.0 mm
07:25 AM 19.2°F-7.1°C 14.9°F-9.5°C 83% 12.0 mph NW19.3 kmh NW 26.0 mph41.8 kmh 29.49 in998.6 mb 0.00 in0.0 mm 0.00 in/hr0.0 mm/hr 0.00 in0.0 mm
07:20 AM 19.2°F-7.1°C 14.9°F-9.5°C 83% 21.0 mph WNW33.8 kmh WNW 26.0 mph41.8 kmh 29.49 in998.6 mb 0.00 in0.0 mm 0.00 in/hr0.0 mm/hr 0.00 in0.0 mm
07:15 AM 19.2°F-7.1°C 14.6°F-9.7°C 82% 19.0 mph NW30.6 kmh NW 26.0 mph41.8 kmh 29.49 in998.6 mb 0.00 in0.0 mm 0.00 in/hr0.0 mm/hr 0.00 in0.0 mm
07:10 AM 19.3°F-7.1°C 15.0°F-9.4°C 83% 18.0 mph WNW29.0 kmh WNW 26.0 mph41.8 kmh 29.48 in998.3 mb 0.00 in0.0 mm 0.00 in/hr0.0 mm/hr 0.00 in0.0 mm
07:05 AM 19.3°F-7.1°C 15.0°F-9.4°C 83% 15.0 mph WNW24.1 kmh WNW 24.0 mph38.6 kmh 29.48 in998.3 mb 0.00 in0.0 mm 0.00 in/hr0.0 mm/hr 0.00 in0.0 mm
07:00 AM 19.3°F-7.1°C 15.0°F-9.4°C 83% 14.0 mph W22.5 kmh W 18.0 mph29.0 kmh 29.48 in998.3 mb 0.00 in0.0 mm 0.00 in/hr0.0 mm/hr 0.00 in0.0 mm
06:55 AM 19.3°F-7.1°C 15.0°F-9.4°C 83% 12.0 mph WNW19.3 kmh WNW 25.0 mph40.2 kmh 29.48 in998.3 mb 0.00 in0.0 mm 0.00 in/hr0.0 mm/hr 0.00 in0.0 mm
06:50 AM 19.4°F-7.0°C 15.1°F-9.4°C 83% 11.0 mph WNW17.7 kmh WNW 25.0 mph40.2 kmh 29.48 in998.3 mb 0.00 in0.0 mm 0.00 in/hr0.0 mm/hr 0.00 in0.0 mm
06:45 AM 19.5°F-6.9°C 15.2°F-9.3°C 83% 12.0 mph NW19.3 kmh NW 25.0 mph40.2 kmh 29.47 in998.0 mb 0.00 in0.0 mm 0.00 in/hr0.0 mm/hr 0.00 in0.0 mm
06:40 AM 19.6°F-6.9°C 15.6°F-9.1°C 84% 12.0 mph NW19.3 kmh NW 25.0 mph40.2 kmh 29.47 in998.0 mb 0.00 in0.0 mm 0.00 in/hr0.0 mm/hr 0.00 in0.0 mm
06:35 AM 19.8°F-6.8°C 15.8°F-9.0°C 84% 16.0 mph WNW25.7 kmh WNW 25.0 mph40.2 kmh 29.47 in998.0 mb 0.00 in0.0 mm 0.00 in/hr0.0 mm/hr 0.00 in0.0 mm
06:30 AM 19.8°F-6.8°C 15.8°F-9.0°C 84% 13.0 mph W20.9 kmh W 17.0 mph27.4 kmh 29.47 in998.0 mb 0.00 in0.0 mm 0.00 in/hr0.0 mm/hr 0.00 in0.0 mm
06:25 AM 19.8°F-6.8°C 15.8°F-9.0°C 84% 11.0 mph NW17.7 kmh NW 29.0 mph46.7 kmh 29.46 in997.6 mb 0.00 in0.0 mm 0.00 in/hr0.0 mm/hr 0.00 in0.0 mm
06:20 AM 19.9°F-6.7°C 15.9°F-8.9°C 84% 13.0 mph NW20.9 kmh NW 29.0 mph46.7 kmh 29.46 in997.6 mb 0.00 in0.0 mm 0.00 in/hr0.0 mm/hr 0.00 in0.0 mm
06:15 AM 19.9°F-6.7°C 16.1°F-8.8°C 85% 14.0 mph NW22.5 kmh NW 25.0 mph40.2 kmh 29.45 in997.3 mb 0.00 in0.0 mm 0.00 in/hr0.0 mm/hr 0.00 in0.0 mm
06:10 AM 20.0°F-6.7°C 16.2°F-8.8°C 85% 15.0 mph NW24.1 kmh NW 25.0 mph40.2 kmh 29.45 in997.3 mb 0.00 in0.0 mm 0.00 in/hr0.0 mm/hr 0.00 in0.0 mm
06:05 AM 20.0°F-6.7°C 16.2°F-8.8°C 85% 14.0 mph NW22.5 kmh NW 23.0 mph37.0 kmh 29.45 in997.3 mb 0.00 in0.0 mm 0.00 in/hr0.0 mm/hr 0.00 in0.0 mm
06:00 AM 20.0°F-6.7°C 16.2°F-8.8°C 85% 9.0 mph WNW14.5 kmh WNW 23.0 mph37.0 kmh 29.45 in997.3 mb 0.00 in0.0 mm 0.00 in/hr0.0 mm/hr 0.00 in0.0 mm
05:55 AM 20.2°F-6.6°C 16.4°F-8.7°C 85% 20.0 mph W32.2 kmh W 23.0 mph37.0 kmh 29.45 in997.3 mb 0.00 in0.0 mm 0.00 in/hr0.0 mm/hr 0.00 in0.0 mm
05:50 AM 20.4°F-6.4°C 16.6°F-8.6°C 85% 16.0 mph NW25.7 kmh NW 22.0 mph35.4 kmh 29.45 in997.3 mb 0.00 in0.0 mm 0.00 in/hr0.0 mm/hr 0.00 in0.0 mm
05:45 AM 20.5°F-6.4°C 16.7°F-8.5°C 85% 13.0 mph WNW20.9 kmh WNW 22.0 mph35.4 kmh 29.44 in997.0 mb 0.00 in0.0 mm 0.00 in/hr0.0 mm/hr 0.00 in0.0 mm
05:40 AM 20.6°F-6.3°C 16.8°F-8.4°C 85% 14.0 mph NW22.5 kmh NW 22.0 mph35.4 kmh 29.44 in997.0 mb 0.00 in0.0 mm 0.00 in/hr0.0 mm/hr 0.00 in0.0 mm
05:35 AM 20.7°F-6.3°C 16.9°F-8.4°C 85% 12.0 mph NW19.3 kmh NW 21.0 mph33.8 kmh 29.44 in997.0 mb 0.00 in0.0 mm 0.00 in/hr0.0 mm/hr 0.00 in0.0 mm
05:30 AM 20.7°F-6.3°C 16.9°F-8.4°C 85% 7.0 mph W11.3 kmh W 21.0 mph33.8 kmh 29.44 in997.0 mb 0.00 in0.0 mm 0.00 in/hr0.0 mm/hr 0.00 in0.0 mm
05:25 AM 20.8°F-6.2°C 17.0°F-8.3°C 85% 10.0 mph NW16.1 kmh NW 25.0 mph40.2 kmh 29.44 in997.0 mb 0.00 in0.0 mm 0.00 in/hr0.0 mm/hr 0.00 in0.0 mm
05:20 AM 20.9°F-6.2°C 17.1°F-8.3°C 85% 6.0 mph WNW9.7 kmh WNW 25.0 mph40.2 kmh 29.44 in997.0 mb 0.00 in0.0 mm 0.00 in/hr0.0 mm/hr 0.00 in0.0 mm
05:15 AM 20.9°F-6.2°C 17.1°F-8.3°C 85% 9.0 mph NW14.5 kmh NW 25.0 mph40.2 kmh 29.44 in997.0 mb 0.00 in0.0 mm 0.00 in/hr0.0 mm/hr 0.00 in0.0 mm
05:10 AM 21.1°F-6.1°C 17.3°F-8.2°C 85% 12.0 mph W19.3 kmh W 25.0 mph40.2 kmh 29.44 in997.0 mb 0.00 in0.0 mm 0.00 in/hr0.0 mm/hr 0.00 in0.0 mm
05:05 AM 21.3°F-5.9°C 17.5°F-8.1°C 85% 16.0 mph NW25.7 kmh NW 23.0 mph37.0 kmh 29.44 in997.0 mb 0.00 in0.0 mm 0.00 in/hr0.0 mm/hr 0.00 in0.0 mm
05:00 AM 21.4°F-5.9°C 17.6°F-8.0°C 85% 14.0 mph WNW22.5 kmh WNW 17.0 mph27.4 kmh 29.43 in996.6 mb 0.00 in0.0 mm 0.00 in/hr0.0 mm/hr 0.00 in0.0 mm
04:55 AM 21.6°F-5.8°C 17.8°F-7.9°C 85% 8.0 mph NW12.9 kmh NW 23.0 mph37.0 kmh 29.44 in997.0 mb 0.00 in0.0 mm 0.00 in/hr0.0 mm/hr 0.00 in0.0 mm
04:50 AM 21.7°F-5.7°C 17.9°F-7.8°C 85% 11.0 mph NW17.7 kmh NW 23.0 mph37.0 kmh 29.43 in996.6 mb 0.00 in0.0 mm 0.00 in/hr0.0 mm/hr 0.00 in0.0 mm
04:45 AM 21.8°F-5.7°C 18.0°F-7.8°C 85% 11.0 mph NW17.7 kmh NW 22.0 mph35.4 kmh 29.43 in996.6 mb 0.00 in0.0 mm 0.00 in/hr0.0 mm/hr 0.00 in0.0 mm
04:40 AM 21.9°F-5.6°C 18.1°F-7.7°C 85% 14.0 mph NW22.5 kmh NW 22.0 mph35.4 kmh 29.43 in996.6 mb 0.00 in0.0 mm 0.00 in/hr0.0 mm/hr 0.00 in0.0 mm
04:35 AM 22.0°F-5.6°C 18.2°F-7.7°C 85% 14.0 mph WNW22.5 kmh WNW 22.0 mph35.4 kmh 29.43 in996.6 mb 0.00 in0.0 mm 0.00 in/hr0.0 mm/hr 0.00 in0.0 mm
04:30 AM 22.1°F-5.5°C 18.3°F-7.6°C 85% 12.0 mph NW19.3 kmh NW 16.0 mph25.7 kmh 29.43 in996.6 mb 0.00 in0.0 mm 0.00 in/hr0.0 mm/hr 0.00 in0.0 mm
04:25 AM 22.2°F-5.4°C 18.4°F-7.6°C 85% 12.0 mph NW19.3 kmh NW 27.0 mph43.5 kmh 29.43 in996.6 mb 0.00 in0.0 mm 0.00 in/hr0.0 mm/hr 0.00 in0.0 mm
04:20 AM 22.3°F-5.4°C 18.5°F-7.5°C 85% 9.0 mph W14.5 kmh W 27.0 mph43.5 kmh 29.42 in996.3 mb 0.00 in0.0 mm 0.00 in/hr0.0 mm/hr 0.00 in0.0 mm
04:15 AM 22.4°F-5.3°C 18.3°F-7.6°C 84% 7.0 mph NW11.3 kmh NW 25.0 mph40.2 kmh 29.42 in996.3 mb 0.00 in0.0 mm 0.00 in/hr0.0 mm/hr 0.00 in0.0 mm
04:10 AM 22.5°F-5.3°C 18.4°F-7.6°C 84% 15.0 mph WNW24.1 kmh WNW 25.0 mph40.2 kmh 29.42 in996.3 mb 0.00 in0.0 mm 0.00 in/hr0.0 mm/hr 0.00 in0.0 mm
04:05 AM 22.6°F-5.2°C 18.5°F-7.5°C 84% 15.0 mph N24.1 kmh N 21.0 mph33.8 kmh 29.42 in996.3 mb 0.00 in0.0 mm 0.00 in/hr0.0 mm/hr 0.00 in0.0 mm
04:00 AM 22.6°F-5.2°C 18.5°F-7.5°C 84% 14.0 mph WNW22.5 kmh WNW 17.0 mph27.4 kmh 29.42 in996.3 mb 0.00 in0.0 mm 0.00 in/hr0.0 mm/hr 0.00 in0.0 mm
03:55 AM 22.8°F-5.1°C 18.7°F-7.4°C 84% 18.0 mph NW29.0 kmh NW 27.0 mph43.5 kmh 29.42 in996.3 mb 0.00 in0.0 mm 0.00 in/hr0.0 mm/hr 0.00 in0.0 mm
03:50 AM 23.0°F-5.0°C 18.9°F-7.3°C 84% 10.0 mph NW16.1 kmh NW 26.0 mph41.8 kmh 29.42 in996.3 mb 0.00 in0.0 mm 0.00 in/hr0.0 mm/hr 0.00 in0.0 mm
03:45 AM 23.1°F-4.9°C 19.0°F-7.2°C 84% 9.0 mph W14.5 kmh W 26.0 mph41.8 kmh 29.42 in996.3 mb 0.00 in0.0 mm 0.00 in/hr0.0 mm/hr 0.00 in0.0 mm
03:40 AM 23.3°F-4.8°C 19.2°F-7.1°C 84% 9.0 mph NNW14.5 kmh NNW 25.0 mph40.2 kmh 29.42 in996.3 mb 0.00 in0.0 mm 0.00 in/hr0.0 mm/hr 0.00 in0.0 mm
03:35 AM 23.4°F-4.8°C 19.3°F-7.1°C 84% 11.0 mph WNW17.7 kmh WNW 25.0 mph40.2 kmh 29.41 in995.9 mb 0.00 in0.0 mm 0.00 in/hr0.0 mm/hr 0.00 in0.0 mm
03:30 AM 23.6°F-4.7°C 19.8°F-6.8°C 85% 10.0 mph NW16.1 kmh NW 18.0 mph29.0 kmh 29.42 in996.3 mb 0.00 in0.0 mm 0.00 in/hr0.0 mm/hr 0.00 in0.0 mm
03:25 AM 23.7°F-4.6°C 19.9°F-6.7°C 85% 12.0 mph N19.3 kmh N 25.0 mph40.2 kmh 29.42 in996.3 mb 0.00 in0.0 mm 0.00 in/hr0.0 mm/hr 0.00 in0.0 mm
03:20 AM 23.8°F-4.6°C 20.0°F-6.7°C 85% 12.0 mph NW19.3 kmh NW 25.0 mph40.2 kmh 29.42 in996.3 mb 0.00 in0.0 mm 0.00 in/hr0.0 mm/hr 0.00 in0.0 mm
03:15 AM 24.0°F-4.4°C 20.2°F-6.6°C 85% 17.0 mph NW27.4 kmh NW 24.0 mph38.6 kmh 29.41 in995.9 mb 0.00 in0.0 mm 0.00 in/hr0.0 mm/hr 0.00 in0.0 mm
03:10 AM 24.0°F-4.4°C 20.2°F-6.6°C 85% 13.0 mph NW20.9 kmh NW 22.0 mph35.4 kmh 29.41 in995.9 mb 0.00 in0.0 mm 0.00 in/hr0.0 mm/hr 0.00 in0.0 mm
03:05 AM 24.1°F-4.4°C 20.3°F-6.5°C 85% 12.0 mph W19.3 kmh W 22.0 mph35.4 kmh 29.41 in995.9 mb 0.00 in0.0 mm 0.00 in/hr0.0 mm/hr 0.00 in0.0 mm
03:00 AM 24.2°F-4.3°C 20.4°F-6.4°C 85% 12.0 mph WNW19.3 kmh WNW 22.0 mph35.4 kmh 29.41 in995.9 mb 0.00 in0.0 mm 0.00 in/hr0.0 mm/hr 0.00 in0.0 mm
02:55 AM 24.3°F-4.3°C 20.7°F-6.3°C 86% 15.0 mph NW24.1 kmh NW 33.0 mph53.1 kmh 29.41 in995.9 mb 0.00 in0.0 mm 0.00 in/hr0.0 mm/hr 0.00 in0.0 mm
02:50 AM 24.5°F-4.2°C 20.9°F-6.2°C 86% 8.0 mph NNW12.9 kmh NNW 33.0 mph53.1 kmh 29.41 in995.9 mb 0.00 in0.0 mm 0.00 in/hr0.0 mm/hr 0.00 in0.0 mm
02:45 AM 24.6°F-4.1°C 21.3°F-5.9°C 87% 15.0 mph NNW24.1 kmh NNW 29.0 mph46.7 kmh 29.41 in995.9 mb 0.00 in0.0 mm 0.00 in/hr0.0 mm/hr 0.00 in0.0 mm
02:40 AM 24.8°F-4.0°C 21.5°F-5.8°C 87% 10.0 mph WNW16.1 kmh WNW 27.0 mph43.5 kmh 29.41 in995.9 mb 0.00 in0.0 mm 0.00 in/hr0.0 mm/hr 0.00 in0.0 mm
02:35 AM 24.9°F-3.9°C 21.6°F-5.8°C 87% 13.0 mph NW20.9 kmh NW 23.0 mph37.0 kmh 29.41 in995.9 mb 0.00 in0.0 mm 0.00 in/hr0.0 mm/hr 0.00 in0.0 mm
02:30 AM 25.0°F-3.9°C 22.0°F-5.6°C 88% 14.0 mph WNW22.5 kmh WNW 19.0 mph30.6 kmh 29.41 in995.9 mb 0.00 in0.0 mm 0.00 in/hr0.0 mm/hr 0.00 in0.0 mm
02:25 AM 25.0°F-3.9°C 22.0°F-5.6°C 88% 10.0 mph NW16.1 kmh NW 28.0 mph45.1 kmh 29.41 in995.9 mb 0.00 in0.0 mm 0.00 in/hr0.0 mm/hr 0.00 in0.0 mm
02:20 AM 25.2°F-3.8°C 22.2°F-5.4°C 88% 17.0 mph WNW27.4 kmh WNW 28.0 mph45.1 kmh 29.41 in995.9 mb 0.00 in0.0 mm 0.00 in/hr0.0 mm/hr 0.00 in0.0 mm
02:15 AM 25.3°F-3.7°C 22.3°F-5.4°C 88% 17.0 mph NW27.4 kmh NW 28.0 mph45.1 kmh 29.40 in995.6 mb 0.00 in0.0 mm 0.00 in/hr0.0 mm/hr 0.00 in0.0 mm
02:10 AM 25.5°F-3.6°C 22.7°F-5.2°C 89% 10.0 mph W16.1 kmh W 28.0 mph45.1 kmh 29.40 in995.6 mb 0.00 in0.0 mm 0.00 in/hr0.0 mm/hr 0.00 in0.0 mm
02:05 AM 25.6°F-3.6°C 22.8°F-5.1°C 89% 20.0 mph NW32.2 kmh NW 28.0 mph45.1 kmh 29.40 in995.6 mb 0.00 in0.0 mm 0.00 in/hr0.0 mm/hr 0.00 in0.0 mm
02:00 AM 25.7°F-3.5°C 22.7°F-5.2°C 88% 17.0 mph W27.4 kmh W 17.0 mph27.4 kmh 29.39 in995.3 mb 0.00 in0.0 mm 0.00 in/hr0.0 mm/hr 0.00 in0.0 mm
01:55 AM 25.7°F-3.5°C 22.7°F-5.2°C 88% 11.0 mph NW17.7 kmh NW 24.0 mph38.6 kmh 29.40 in995.6 mb 0.00 in0.0 mm 0.00 in/hr0.0 mm/hr 0.00 in0.0 mm
01:50 AM 26.0°F-3.3°C 22.9°F-5.1°C 88% 18.0 mph NW29.0 kmh NW 24.0 mph38.6 kmh 29.40 in995.6 mb 0.00 in0.0 mm 0.00 in/hr0.0 mm/hr 0.00 in0.0 mm
01:45 AM 26.2°F-3.2°C 23.1°F-4.9°C 88% 10.0 mph W16.1 kmh W 24.0 mph38.6 kmh 29.40 in995.6 mb 0.00 in0.0 mm 0.00 in/hr0.0 mm/hr 0.00 in0.0 mm
01:40 AM 26.2°F-3.2°C 23.1°F-4.9°C 88% 9.0 mph NW14.5 kmh NW 24.0 mph38.6 kmh 29.40 in995.6 mb 0.00 in0.0 mm 0.00 in/hr0.0 mm/hr 0.00 in0.0 mm
01:35 AM 26.4°F-3.1°C 23.3°F-4.8°C 88% 7.0 mph W11.3 kmh W 24.0 mph38.6 kmh 29.39 in995.3 mb 0.00 in0.0 mm 0.00 in/hr0.0 mm/hr 0.00 in0.0 mm
01:30 AM 26.4°F-3.1°C 23.3°F-4.8°C 88% 5.0 mph WNW8.0 kmh WNW 15.0 mph24.1 kmh 29.39 in995.3 mb 0.00 in0.0 mm 0.00 in/hr0.0 mm/hr 0.00 in0.0 mm
01:25 AM 26.5°F-3.1°C 23.4°F-4.8°C 88% 14.0 mph NW22.5 kmh NW 25.0 mph40.2 kmh 29.39 in995.3 mb 0.00 in0.0 mm 0.00 in/hr0.0 mm/hr 0.00 in0.0 mm
01:20 AM 26.6°F-3.0°C 23.5°F-4.7°C 88% 13.0 mph NW20.9 kmh NW 25.0 mph40.2 kmh 29.40 in995.6 mb 0.00 in0.0 mm 0.00 in/hr0.0 mm/hr 0.00 in0.0 mm
01:15 AM 26.8°F-2.9°C 23.7°F-4.6°C 88% 18.0 mph NNW29.0 kmh NNW 25.0 mph40.2 kmh 29.40 in995.6 mb 0.00 in0.0 mm 0.00 in/hr0.0 mm/hr 0.00 in0.0 mm
01:10 AM 26.9°F-2.8°C 23.6°F-4.7°C 87% 10.0 mph NW16.1 kmh NW 25.0 mph40.2 kmh 29.40 in995.6 mb 0.00 in0.0 mm 0.00 in/hr0.0 mm/hr 0.00 in0.0 mm
01:05 AM 27.1°F-2.7°C 24.0°F-4.4°C 88% 20.0 mph WNW32.2 kmh WNW 25.0 mph40.2 kmh 29.40 in995.6 mb 0.00 in0.0 mm 0.00 in/hr0.0 mm/hr 0.00 in0.0 mm
01:00 AM 27.2°F-2.7°C 24.1°F-4.4°C 88% 15.0 mph W24.1 kmh W 19.0 mph30.6 kmh 29.40 in995.6 mb 0.00 in0.0 mm 0.00 in/hr0.0 mm/hr 0.00 in0.0 mm
12:55 AM 27.2°F-2.7°C 23.9°F-4.5°C 87% 15.0 mph WNW24.1 kmh WNW 27.0 mph43.5 kmh 29.40 in995.6 mb 0.00 in0.0 mm 0.00 in/hr0.0 mm/hr 0.00 in0.0 mm
12:50 AM 27.3°F-2.6°C 24.0°F-4.4°C 87% 11.0 mph NW17.7 kmh NW 25.0 mph40.2 kmh 29.40 in995.6 mb 0.00 in0.0 mm 0.00 in/hr0.0 mm/hr 0.00 in0.0 mm
12:45 AM 27.5°F-2.5°C 24.2°F-4.3°C 87% 13.0 mph WNW20.9 kmh WNW 25.0 mph40.2 kmh 29.40 in995.6 mb 0.00 in0.0 mm 0.00 in/hr0.0 mm/hr 0.00 in0.0 mm
12:40 AM 27.6°F-2.4°C 24.2°F-4.3°C 87% 10.0 mph NW16.1 kmh NW 25.0 mph40.2 kmh 29.41 in995.9 mb 0.00 in0.0 mm 0.00 in/hr0.0 mm/hr 0.00 in0.0 mm
12:35 AM 27.7°F-2.4°C 24.3°F-4.3°C 87% 16.0 mph NW25.7 kmh NW 25.0 mph40.2 kmh 29.40 in995.6 mb 0.00 in0.0 mm 0.00 in/hr0.0 mm/hr 0.00 in0.0 mm
12:30 AM 27.8°F-2.3°C 24.4°F-4.2°C 87% 10.0 mph NNW16.1 kmh NNW 19.0 mph30.6 kmh 29.41 in995.9 mb 0.00 in0.0 mm 0.00 in/hr0.0 mm/hr 0.00 in0.0 mm
12:25 AM 27.9°F-2.3°C 24.3°F-4.3°C 86% 13.0 mph NW20.9 kmh NW 24.0 mph38.6 kmh 29.41 in995.9 mb 0.00 in0.0 mm 0.00 in/hr0.0 mm/hr 0.00 in0.0 mm
12:20 AM 28.0°F-2.2°C 24.4°F-4.2°C 86% 10.0 mph WNW16.1 kmh WNW 24.0 mph38.6 kmh 29.41 in995.9 mb 0.00 in0.0 mm 0.00 in/hr0.0 mm/hr 0.00 in0.0 mm
12:15 AM 28.2°F-2.1°C 24.6°F-4.1°C 86% 11.0 mph NW17.7 kmh NW 24.0 mph38.6 kmh 29.41 in995.9 mb 0.00 in0.0 mm 0.00 in/hr0.0 mm/hr 0.00 in0.0 mm
12:10 AM 28.4°F-2.0°C 24.8°F-4.0°C 86% 9.0 mph NW14.5 kmh NW 21.0 mph33.8 kmh 29.41 in995.9 mb 0.00 in0.0 mm 0.00 in/hr0.0 mm/hr 0.00 in0.0 mm
12:05 AM 28.5°F-1.9°C 24.6°F-4.1°C 85% 10.0 mph WNW16.1 kmh WNW 17.0 mph27.4 kmh 29.41 in995.9 mb 0.00 in0.0 mm 0.00 in/hr0.0 mm/hr 0.00 in0.0 mm
12:00 AM 28.5°F-1.9°C 24.6°F-4.1°C 85% 11.0 mph NW17.7 kmh NW 17.0 mph27.4 kmh 29.41 in995.9 mb 0.00 in0.0 mm 0.00 in/hr0.0 mm/hr 0.00 in0.0 mm